createdAt,value
2017-08-25T00:01:48.476Z,25.83
2017-08-25T00:04:21.284Z,26.53
2017-08-25T00:06:52.817Z,24.57
2017-08-25T00:09:22.901Z,25.30
2017-08-25T00:11:52.625Z,26.80
2017-08-25T00:14:21.968Z,26.27
2017-08-25T00:16:51.504Z,27.00
2017-08-25T00:19:20.811Z,25.80
2017-08-25T00:21:50.183Z,27.50
2017-08-25T00:24:19.580Z,25.43
2017-08-25T00:26:48.968Z,28.10
2017-08-25T00:29:18.299Z,26.30
2017-08-25T00:31:47.721Z,27.10
2017-08-25T00:34:17.097Z,26.00
2017-08-25T00:36:46.561Z,27.17
2017-08-25T00:39:16.785Z,25.07
2017-08-25T00:41:46.171Z,26.53
2017-08-25T00:44:15.547Z,26.80
2017-08-25T00:46:44.945Z,22.17
2017-08-25T00:49:14.270Z,28.50
2017-08-25T00:51:43.678Z,26.70
2017-08-25T00:54:13.017Z,25.07
2017-08-25T00:56:42.476Z,24.60
2017-08-25T00:59:11.893Z,26.30
2017-08-25T01:01:41.289Z,25.00
2017-08-25T01:04:10.722Z,26.77
2017-08-25T01:06:40.159Z,25.53
2017-08-25T01:09:09.519Z,26.17
2017-08-25T01:11:40.715Z,24.57
2017-08-25T01:14:10.074Z,27.80
2017-08-25T01:16:39.724Z,27.97
2017-08-25T01:19:09.118Z,28.70
2017-08-25T01:21:38.666Z,26.67
2017-08-25T01:24:08.172Z,27.27
2017-08-25T01:26:37.983Z,24.73
2017-08-25T01:29:07.337Z,27.13
2017-08-25T01:31:36.748Z,27.20
2017-08-25T01:34:06.101Z,25.10
2017-08-25T01:36:35.495Z,25.63
2017-08-25T01:39:05.394Z,24.40
2017-08-25T01:41:34.841Z,25.67
2017-08-25T01:44:04.686Z,21.97
2017-08-25T01:46:34.262Z,24.87
2017-08-25T01:49:03.618Z,24.43
2017-08-25T01:51:33.100Z,22.13
2017-08-25T01:54:02.533Z,23.40
2017-08-25T01:56:31.973Z,23.03
2017-08-25T01:59:01.308Z,24.90
2017-08-25T02:01:30.700Z,24.10
2017-08-25T02:04:00.063Z,23.57
2017-08-25T02:06:29.513Z,25.60
2017-08-25T02:08:58.888Z,23.63
2017-08-25T02:11:28.397Z,25.83
2017-08-25T02:13:57.784Z,26.03
2017-08-25T02:16:27.151Z,24.80
2017-08-25T02:18:56.493Z,25.53
2017-08-25T02:21:30.029Z,21.93
2017-08-25T02:23:59.354Z,26.50
2017-08-25T02:26:28.869Z,22.20
2017-08-25T02:28:58.261Z,28.40
2017-08-25T02:31:27.654Z,23.70
2017-08-25T02:33:57.053Z,25.77
2017-08-25T02:36:26.424Z,23.83
2017-08-25T02:38:55.755Z,25.17
2017-08-25T02:41:25.152Z,24.80
2017-08-25T02:43:54.597Z,26.00
2017-08-25T02:46:23.969Z,25.23
2017-08-25T02:48:53.311Z,23.57
2017-08-25T02:51:22.751Z,22.37
2017-08-25T02:53:52.132Z,22.90
2017-08-25T02:56:21.585Z,26.20
2017-08-25T02:58:51.026Z,23.77
2017-08-25T03:01:20.475Z,22.97
2017-08-25T03:03:49.814Z,23.50
2017-08-25T03:06:19.238Z,23.70
2017-08-25T03:08:48.653Z,25.80
2017-08-25T03:11:18.060Z,24.97
2017-08-25T03:13:47.452Z,22.30
2017-08-25T03:16:19.700Z,24.53
2017-08-25T03:18:49.080Z,24.30
2017-08-25T03:21:18.523Z,23.80
2017-08-25T03:23:47.877Z,24.13
2017-08-25T03:26:18.242Z,21.00
2017-08-25T03:28:47.852Z,24.93
2017-08-25T03:31:17.270Z,23.63
2017-08-25T03:33:46.664Z,23.30
2017-08-25T03:36:16.397Z,21.53
2017-08-25T03:38:45.743Z,22.00
2017-08-25T03:41:15.208Z,21.40
2017-08-25T03:43:44.661Z,25.63
2017-08-25T03:46:14.015Z,25.10
2017-08-25T03:48:43.401Z,24.80
2017-08-25T03:51:12.749Z,24.47
2017-08-25T03:53:42.081Z,23.23
2017-08-25T03:56:12.131Z,24.63
2017-08-25T03:58:41.558Z,26.93
2017-08-25T04:01:10.960Z,21.40
2017-08-25T04:03:40.389Z,23.97
2017-08-25T04:06:11.693Z,24.80
2017-08-25T04:08:41.839Z,23.07
2017-08-25T04:11:11.264Z,24.03
2017-08-25T04:13:40.529Z,22.70
2017-08-25T04:16:09.896Z,22.60
2017-08-25T04:18:39.659Z,26.23
2017-08-25T04:21:09.133Z,23.83
2017-08-25T04:23:38.466Z,28.83
2017-08-25T04:26:07.878Z,25.53
2017-08-25T04:28:37.252Z,26.80
2017-08-25T04:31:06.740Z,24.83
2017-08-25T04:33:36.153Z,26.37
2017-08-25T04:36:05.572Z,24.53
2017-08-25T04:38:34.896Z,25.17
2017-08-25T04:41:04.327Z,25.90
2017-08-25T04:43:33.697Z,26.30
2017-08-25T04:46:03.221Z,24.30
2017-08-25T04:48:32.671Z,29.90
2017-08-25T04:51:02.209Z,23.70
2017-08-25T04:53:31.603Z,25.30
2017-08-25T04:56:01.524Z,23.90
2017-08-25T04:58:31.056Z,23.17
2017-08-25T05:01:04.699Z,26.83
2017-08-25T05:03:34.817Z,25.90
2017-08-25T05:06:04.401Z,28.03
2017-08-25T05:08:33.869Z,29.30
2017-08-25T05:11:03.336Z,28.07
2017-08-25T05:13:32.770Z,28.60
2017-08-25T05:16:02.179Z,27.70
2017-08-25T05:18:31.520Z,31.17
2017-08-25T05:21:00.942Z,26.57
2017-08-25T05:24:10.972Z,27.33
2017-08-25T05:26:55.869Z,26.40
2017-08-25T05:29:28.208Z,28.47
2017-08-25T05:31:59.173Z,32.80
2017-08-25T05:34:29.005Z,28.70
2017-08-25T05:36:58.696Z,28.00
2017-08-25T05:39:28.066Z,26.10
2017-08-25T05:41:57.488Z,28.00
2017-08-25T05:44:26.872Z,30.87
2017-08-25T05:46:57.246Z,31.63
2017-08-25T05:49:26.620Z,29.97
2017-08-25T05:51:55.977Z,28.97
2017-08-25T05:54:25.303Z,25.30
2017-08-25T05:56:54.749Z,25.67
2017-08-25T05:59:24.142Z,27.53
2017-08-25T06:01:54.000Z,25.80
2017-08-25T06:04:23.314Z,26.90
2017-08-25T06:06:52.672Z,26.47
2017-08-25T06:09:22.054Z,24.70
2017-08-25T06:11:51.556Z,25.60
2017-08-25T06:14:21.129Z,24.27
2017-08-25T06:16:50.611Z,24.50
2017-08-25T06:19:20.244Z,27.00
2017-08-25T06:21:50.056Z,27.07
2017-08-25T06:24:19.839Z,26.73
2017-08-25T06:26:51.472Z,23.67
2017-08-25T06:29:21.068Z,22.40
2017-08-25T06:31:50.476Z,21.30
2017-08-25T06:34:20.072Z,23.67
2017-08-25T06:36:51.062Z,20.83
2017-08-25T06:39:20.518Z,21.23
2017-08-25T06:41:55.985Z,21.87
2017-08-25T06:44:26.955Z,20.00
2017-08-25T06:46:56.404Z,20.60
2017-08-25T06:49:25.705Z,20.97
2017-08-25T06:51:55.782Z,24.27
2017-08-25T06:54:25.370Z,20.30
2017-08-25T06:56:55.328Z,21.13
2017-08-25T06:59:26.517Z,19.17
2017-08-25T07:01:56.034Z,18.40
2017-08-25T07:04:25.580Z,19.60
2017-08-25T07:06:55.041Z,17.97
2017-08-25T07:09:24.412Z,18.13
2017-08-25T07:11:53.788Z,17.70
2017-08-25T07:14:23.159Z,16.03
2017-08-25T07:16:52.562Z,17.10
2017-08-25T07:19:21.896Z,15.60
2017-08-25T07:21:51.313Z,14.40
2017-08-25T07:24:20.639Z,13.93
2017-08-25T07:26:50.041Z,14.13
2017-08-25T07:29:19.405Z,15.17
2017-08-25T07:34:45.145Z,14.07
2017-08-25T07:37:14.602Z,14.50
2017-08-25T07:39:43.939Z,14.80
2017-08-25T07:42:13.334Z,15.00
2017-08-25T07:44:42.703Z,14.57
2017-08-25T07:47:12.170Z,15.43
2017-08-25T07:49:41.489Z,14.83
2017-08-25T07:52:10.891Z,15.00
2017-08-25T07:54:40.206Z,14.27
2017-08-25T07:57:09.608Z,13.70
2017-08-25T07:59:39.235Z,12.33
2017-08-25T08:02:08.840Z,11.07
2017-08-25T08:04:38.188Z,10.37
2017-08-25T08:07:07.597Z,10.00
2017-08-25T08:09:36.944Z,10.20
2017-08-25T08:12:06.333Z,7.90
2017-08-25T08:14:35.864Z,6.50
2017-08-25T08:17:05.205Z,6.70
2017-08-25T08:19:34.525Z,7.23
2017-08-25T08:22:03.892Z,8.37
2017-08-25T08:24:33.198Z,8.90
2017-08-25T08:27:02.647Z,9.67
2017-08-25T08:29:31.997Z,10.83
2017-08-25T08:32:01.391Z,9.47
2017-08-25T08:34:30.787Z,9.37
2017-08-25T08:37:01.157Z,9.83
2017-08-25T08:39:30.504Z,11.90
2017-08-25T08:41:59.916Z,11.60
2017-08-25T08:44:36.084Z,10.00
2017-08-25T08:47:05.451Z,12.77
2017-08-25T08:49:34.759Z,11.80
2017-08-25T08:52:04.169Z,11.03
2017-08-25T08:54:33.451Z,12.17
2017-08-25T08:57:02.865Z,13.67
2017-08-25T08:59:32.215Z,14.80
2017-08-25T09:02:04.597Z,13.60
2017-08-25T09:04:33.961Z,15.23
2017-08-25T09:07:03.356Z,14.10
2017-08-25T09:09:32.715Z,12.90
2017-08-25T09:12:02.130Z,13.87
2017-08-25T09:14:31.488Z,12.10
2017-08-25T09:17:01.035Z,11.90
2017-08-25T09:19:30.325Z,13.90
2017-08-25T09:21:59.661Z,14.10
2017-08-25T09:24:29.378Z,12.27
2017-08-25T09:26:58.829Z,12.97
2017-08-25T09:29:28.187Z,12.10
2017-08-25T09:31:57.627Z,12.10
2017-08-25T09:34:26.973Z,12.67
2017-08-25T09:36:56.365Z,12.33
2017-08-25T09:39:25.712Z,12.23
2017-08-25T09:41:55.057Z,13.07
2017-08-25T09:44:24.441Z,12.10
2017-08-25T09:46:54.318Z,11.90
2017-08-25T09:49:23.627Z,12.90
2017-08-25T09:51:53.099Z,12.60
2017-08-25T09:54:22.497Z,13.60
2017-08-25T09:56:51.882Z,13.20
2017-08-25T09:59:21.239Z,12.47
2017-08-25T10:01:50.604Z,11.57
2017-08-25T10:04:19.973Z,13.57
2017-08-25T10:06:49.363Z,14.60
2017-08-25T10:09:18.729Z,12.43
2017-08-25T10:11:48.157Z,12.00
2017-08-25T10:14:17.523Z,10.93
2017-08-25T10:16:46.884Z,9.67
2017-08-25T10:19:16.309Z,10.00
2017-08-25T10:21:45.725Z,8.90
2017-08-25T10:24:15.069Z,7.83
2017-08-25T10:26:44.469Z,8.00
2017-08-25T10:29:13.844Z,6.43
2017-08-25T10:31:43.213Z,6.60
2017-08-25T10:34:21.460Z,6.13
2017-08-25T10:41:06.228Z,7.07
2017-08-25T10:45:44.953Z,6.63
2017-08-25T10:48:14.283Z,6.93
2017-08-25T10:50:43.599Z,5.83
2017-08-25T10:53:12.916Z,5.33
2017-08-25T10:55:42.739Z,5.57
2017-08-25T10:58:12.135Z,5.70
2017-08-25T11:00:41.484Z,5.30
2017-08-25T11:03:10.858Z,5.70
2017-08-25T11:05:40.477Z,5.03
2017-08-25T11:08:10.155Z,5.23
2017-08-25T11:10:39.508Z,5.03
2017-08-25T11:13:08.864Z,5.23
2017-08-25T11:15:39.154Z,6.63
2017-08-25T11:18:08.527Z,6.00
2017-08-25T11:20:37.883Z,5.87
2017-08-25T11:23:07.222Z,5.53
2017-08-25T11:25:36.620Z,5.00
2017-08-25T11:28:05.900Z,5.10
2017-08-25T11:30:35.415Z,4.50
2017-08-25T11:33:04.740Z,5.23
2017-08-25T11:35:34.085Z,4.60
2017-08-25T11:38:03.352Z,5.10
2017-08-25T11:40:32.725Z,5.10
2017-08-25T11:43:02.109Z,5.03
2017-08-25T11:45:31.533Z,4.57
2017-08-25T11:48:00.831Z,4.27
2017-08-25T11:50:36.975Z,3.80
2017-08-25T11:53:07.185Z,3.97
2017-08-25T11:55:36.551Z,3.57
2017-08-25T11:58:05.808Z,3.70
2017-08-25T12:00:35.125Z,3.93
2017-08-25T12:03:04.424Z,3.67
2017-08-25T12:05:33.866Z,3.77
2017-08-25T12:08:03.199Z,3.77
2017-08-25T12:10:32.556Z,3.53
2017-08-25T12:13:01.944Z,3.40
2017-08-25T12:15:31.268Z,3.63
2017-08-25T12:18:00.591Z,3.30
2017-08-25T12:20:29.923Z,3.60
2017-08-25T12:22:59.244Z,3.00
2017-08-25T12:25:28.792Z,3.60
2017-08-25T12:27:58.141Z,3.30
2017-08-25T12:30:27.472Z,4.47
2017-08-25T12:32:56.825Z,3.10
2017-08-25T12:35:27.867Z,3.43
2017-08-25T12:37:57.229Z,3.23
2017-08-25T12:40:26.621Z,2.90
2017-08-25T12:42:55.930Z,3.10
2017-08-25T12:45:25.389Z,3.37
2017-08-25T12:47:54.817Z,2.80
2017-08-25T12:50:24.216Z,2.73
2017-08-25T12:52:53.600Z,3.63
2017-08-25T12:55:22.910Z,3.30
2017-08-25T12:57:52.196Z,3.67
2017-08-25T13:00:21.556Z,3.27
2017-08-25T13:02:50.877Z,3.17
2017-08-25T13:05:20.219Z,3.17
2017-08-25T13:07:49.495Z,2.80
2017-08-25T13:10:19.076Z,3.40
2017-08-25T13:12:48.372Z,3.30
2017-08-25T13:15:17.783Z,2.83
2017-08-25T13:17:47.128Z,3.80
2017-08-25T13:20:16.479Z,2.70
2017-08-25T13:22:45.785Z,3.30
2017-08-25T13:25:15.136Z,3.00
2017-08-25T13:27:44.507Z,3.37
2017-08-25T13:30:16.576Z,2.50
2017-08-25T13:32:46.173Z,3.03
2017-08-25T13:35:16.500Z,2.90
2017-08-25T13:37:47.443Z,2.73
2017-08-25T13:40:17.668Z,2.80
2017-08-25T13:42:47.107Z,2.87
2017-08-25T13:45:16.928Z,3.03
2017-08-25T13:47:51.344Z,2.70
2017-08-25T13:50:34.136Z,3.03
2017-08-25T13:53:03.765Z,2.60
2017-08-25T13:55:33.172Z,2.50
2017-08-25T13:58:02.582Z,2.67
2017-08-25T14:00:34.570Z,3.17
2017-08-25T14:03:03.910Z,2.53
2017-08-25T14:05:33.418Z,3.27
2017-08-25T14:08:02.887Z,3.03
2017-08-25T14:10:32.498Z,2.50
2017-08-25T14:13:01.880Z,2.67
2017-08-25T14:15:31.252Z,3.23
2017-08-25T14:18:00.556Z,2.13
2017-08-25T14:20:29.896Z,3.17
2017-08-25T14:22:59.275Z,3.20
2017-08-25T14:25:29.423Z,2.57
2017-08-25T14:27:58.797Z,2.80
2017-08-25T14:30:28.225Z,2.80
2017-08-25T14:32:57.665Z,2.60
2017-08-25T14:35:27.049Z,2.40
2017-08-25T14:38:03.498Z,2.37
2017-08-25T14:40:33.327Z,2.30
2017-08-25T14:43:03.949Z,2.93
2017-08-25T14:45:33.478Z,2.70
2017-08-25T14:48:02.841Z,2.57
2017-08-25T14:50:32.288Z,2.83
2017-08-25T14:53:01.664Z,2.23
2017-08-25T14:55:31.043Z,2.97
2017-08-25T14:58:00.371Z,2.50
2017-08-25T15:00:29.721Z,2.50
2017-08-25T15:02:59.031Z,2.27
2017-08-25T15:05:28.432Z,2.30
2017-08-25T15:07:57.732Z,2.70
2017-08-25T15:10:27.135Z,2.53
2017-08-25T15:12:56.495Z,2.67
2017-08-25T15:15:25.869Z,3.00
2017-08-25T15:17:55.900Z,2.37
2017-08-25T15:20:25.332Z,2.10
2017-08-25T15:22:54.645Z,3.00
2017-08-25T15:25:23.960Z,2.60
2017-08-25T15:27:53.294Z,2.33
2017-08-25T15:30:23.094Z,2.30
2017-08-25T15:32:52.412Z,2.20
2017-08-25T15:35:21.837Z,2.40
2017-08-25T15:37:51.219Z,3.03
2017-08-25T15:40:20.652Z,2.30
2017-08-25T15:42:49.967Z,2.80
2017-08-25T15:45:19.301Z,5.30
2017-08-25T15:47:48.703Z,2.80
2017-08-25T15:50:18.090Z,2.60
2017-08-25T15:52:53.955Z,2.23
2017-08-25T15:55:23.396Z,2.50
2017-08-25T15:57:52.884Z,2.77
2017-08-25T16:00:22.304Z,3.03
2017-08-25T16:02:51.636Z,2.60
2017-08-25T16:05:21.080Z,2.40
2017-08-25T16:07:50.377Z,2.70
2017-08-25T16:10:19.713Z,3.40
2017-08-25T16:12:49.089Z,2.80
2017-08-25T16:15:18.427Z,2.97
2017-08-25T16:17:47.756Z,2.37
2017-08-25T16:20:17.079Z,2.73
2017-08-25T16:22:46.381Z,2.60
2017-08-25T16:25:16.111Z,2.50
2017-08-25T16:27:45.613Z,2.80
2017-08-25T16:30:14.971Z,3.20
2017-08-25T16:32:44.308Z,2.40
2017-08-25T16:35:13.640Z,2.80
2017-08-25T16:37:42.956Z,2.40
2017-08-25T16:40:12.298Z,2.93
2017-08-25T16:42:41.718Z,2.50
2017-08-25T16:45:11.087Z,2.47
2017-08-25T16:47:40.414Z,2.40
2017-08-25T16:50:09.792Z,2.53
2017-08-25T16:52:39.113Z,2.60
2017-08-25T16:55:08.487Z,2.50
2017-08-25T16:57:37.781Z,2.63
2017-08-25T17:00:07.088Z,2.70
2017-08-25T17:02:36.448Z,2.80
2017-08-25T17:05:05.837Z,2.80
2017-08-25T17:07:35.160Z,3.00
2017-08-25T17:10:04.528Z,2.57
2017-08-25T17:12:33.922Z,2.70
2017-08-25T17:15:03.303Z,2.50
2017-08-25T17:17:32.668Z,3.00
2017-08-25T17:20:02.273Z,2.90
2017-08-25T17:22:31.752Z,2.57
2017-08-25T17:25:01.048Z,2.50
2017-08-25T17:27:30.416Z,2.80
2017-08-25T17:29:59.718Z,2.93
2017-08-25T17:32:29.163Z,3.27
2017-08-25T17:34:58.447Z,2.50
2017-08-25T17:37:27.887Z,2.93
2017-08-25T17:39:57.650Z,3.17
2017-08-25T17:42:27.238Z,2.97
2017-08-25T17:44:56.612Z,3.17
2017-08-25T17:47:26.138Z,3.53
2017-08-25T17:49:55.641Z,3.10
2017-08-25T17:52:25.444Z,3.70
2017-08-25T17:54:55.818Z,3.40
2017-08-25T17:57:25.362Z,3.27
2017-08-25T17:59:54.726Z,3.10
2017-08-25T18:02:24.105Z,3.13
2017-08-25T18:04:53.404Z,3.23
2017-08-25T18:07:22.742Z,3.97
2017-08-25T18:09:52.106Z,4.10
2017-08-25T18:12:21.555Z,3.37
2017-08-25T18:14:50.872Z,3.80
2017-08-25T18:17:20.197Z,3.37
2017-08-25T18:19:49.502Z,3.70
2017-08-25T18:22:18.903Z,4.00
2017-08-25T18:24:48.217Z,3.70
2017-08-25T18:27:17.576Z,4.23
2017-08-25T18:29:47.353Z,5.00
2017-08-25T18:32:17.057Z,7.17
2017-08-25T18:34:46.468Z,5.00
2017-08-25T19:50:12.604Z,8.20
2017-08-25T19:52:41.943Z,9.00
2017-08-25T19:55:11.377Z,8.13
2017-08-25T19:57:51.663Z,8.53
2017-08-25T20:00:22.984Z,9.00
2017-08-25T20:02:52.486Z,7.70
2017-08-25T20:05:23.052Z,8.20
2017-08-25T20:07:52.793Z,8.37
2017-08-25T20:10:22.329Z,7.60
2017-08-25T20:12:52.837Z,8.00
2017-08-25T20:15:22.318Z,6.97
2017-08-25T20:17:51.666Z,7.13
2017-08-25T20:20:21.061Z,8.07
2017-08-25T20:22:50.406Z,7.70
2017-08-25T20:25:19.738Z,7.23
2017-08-25T20:27:49.033Z,8.20
2017-08-25T20:30:18.425Z,8.53
2017-08-25T20:32:49.220Z,9.17
2017-08-25T20:35:18.772Z,9.43
2017-08-25T20:37:48.130Z,10.30
2017-08-25T20:40:17.643Z,10.53
2017-08-25T20:42:47.050Z,10.87
2017-08-25T20:45:16.480Z,11.10
2017-08-25T20:47:45.905Z,10.50
2017-08-25T20:50:15.299Z,9.73
2017-08-25T20:52:44.721Z,9.73
2017-08-25T20:55:14.044Z,12.00
2017-08-25T20:57:43.393Z,12.97
2017-08-25T21:00:12.704Z,11.90
2017-08-25T21:02:42.128Z,10.80
2017-08-25T21:05:11.546Z,10.70
2017-08-25T21:07:41.240Z,12.70
2017-08-25T21:10:10.667Z,11.40
2017-08-25T21:12:40.130Z,11.20
2017-08-25T21:15:09.493Z,11.17
2017-08-25T21:17:38.900Z,16.40
2017-08-25T21:20:08.287Z,27.80
2017-08-25T21:22:37.616Z,26.13
2017-08-25T21:25:07.638Z,20.97
2017-08-25T21:27:36.984Z,14.30
2017-08-25T21:30:06.410Z,10.17
2017-08-25T21:32:35.736Z,11.50
2017-08-25T21:35:05.193Z,9.90
2017-08-25T21:37:34.509Z,10.03
2017-08-25T21:40:03.843Z,9.93
2017-08-25T21:42:33.280Z,9.37
2017-08-25T21:45:02.677Z,9.50
2017-08-25T21:47:32.043Z,9.83
2017-08-25T21:50:01.382Z,9.00
2017-08-25T21:52:30.757Z,8.67
2017-08-25T21:55:00.094Z,9.53
2017-08-25T21:57:29.559Z,9.73
2017-08-25T21:59:58.904Z,9.50
2017-08-25T22:02:28.244Z,10.63
2017-08-25T22:04:57.597Z,9.50
2017-08-25T22:07:26.973Z,8.43
2017-08-25T22:09:56.303Z,8.90
2017-08-25T22:12:25.636Z,10.80
2017-08-25T22:14:54.983Z,14.80
2017-08-25T22:17:24.411Z,15.37
2017-08-25T22:19:53.805Z,14.57
2017-08-25T22:22:23.223Z,16.67
2017-08-25T22:24:52.625Z,16.43
2017-08-25T22:27:22.553Z,14.57
2017-08-25T22:29:51.901Z,13.30
2017-08-25T22:32:21.273Z,14.90
2017-08-25T22:34:50.688Z,15.00
2017-08-25T22:37:20.185Z,13.47
2017-08-25T22:39:49.593Z,14.70
2017-08-25T22:42:19.036Z,16.00
2017-08-25T22:44:48.409Z,16.40
2017-08-25T22:47:17.845Z,16.60
2017-08-25T22:49:47.254Z,16.43
2017-08-25T22:52:16.668Z,15.07
2017-08-25T22:54:46.056Z,14.43
2017-08-25T22:57:17.634Z,13.20
2017-08-25T22:59:47.946Z,11.87
2017-08-25T23:02:18.803Z,12.03
2017-08-25T23:04:48.648Z,13.87
2017-08-25T23:07:19.640Z,11.93
2017-08-25T23:09:49.112Z,13.97
2017-08-25T23:12:18.704Z,12.67
2017-08-25T23:14:48.305Z,12.30
2017-08-25T23:17:19.225Z,12.30
2017-08-25T23:19:48.815Z,11.40
2017-08-25T23:22:18.858Z,12.20
2017-08-25T23:24:49.780Z,12.93
2017-08-25T23:27:19.546Z,11.60
2017-08-25T23:29:49.028Z,12.40
2017-08-25T23:32:18.636Z,11.07
2017-08-25T23:34:48.205Z,12.27
2017-08-25T23:37:17.736Z,12.33
2017-08-25T23:39:48.952Z,13.30
2017-08-25T23:42:18.632Z,10.30
2017-08-25T23:44:48.197Z,9.43
2017-08-25T23:47:18.392Z,11.23
2017-08-25T23:49:48.223Z,9.80
2017-08-25T23:52:17.804Z,10.40
2017-08-25T23:54:47.273Z,9.33
2017-08-25T23:57:16.778Z,9.10
2017-08-25T23:59:46.782Z,11.30
